Terminal Aerodrome Forecast
Issued by NWS

Home | Current Version | Previous Version | Text Only | Print | Product List | Glossary On
Versions: 1 2 3 4 5 6 7 8 9 10 11 12
000
FTPA31 PHFO 181737
TAFSTU
TAF
NSTU 181737Z 1818/1918 20005KT P6SM VCSH SCT015 BKN040 OVC150=

USA.gov is the U.S. government's official web portal to all federal, state and local government web resources and services.